Time;durP1;ratioP1;P1;durP2;ratioP2;P2;SDS_P1;SDS_P2;PMS_P1;PMS_P2;Temp;Humidity;BMP_temperature;BMP_pressure;BME280_temperature;BME280_humidity;BME280_pressure;Samples;Min_cycle;Max_cycle;Signal;HPM_P1;HPM_P2
2022/07/22 00:00:08;;;;;;;;;;;;;;;24.23;46.52;99197.28;4926241;29;20005;-92
2022/07/22 00:02:33;;;;;;;;;;;;;;;24.23;46.63;99196.47;4926514;29;19914;-93
2022/07/22 00:04:58;;;;;;;;;;;;;;;24.24;46.42;99196.13;4926783;29;19973;-92
2022/07/22 00:07:24;;;;;;;;;;;;;;;24.27;46.43;99197.34;4926443;29;19970;-94
2022/07/22 00:09:52;;;;;;;;;;;;;;;24.17;46.73;99194.00;4925832;29;19918;-94
2022/07/22 00:12:17;;;;;;;;;;;;;;;24.14;46.91;99196.72;4925886;29;20006;-95
2022/07/22 00:14:42;;;;;;;;;;;;;;;24.28;46.44;99196.16;4926640;29;19938;-93
2022/07/22 00:17:07;;;;;;;;;;;;;;;24.35;46.40;99196.31;4926444;29;20304;-94
2022/07/22 00:19:33;;;;;;;;;;;;;;;24.20;47.52;99203.50;4925902;29;19914;-93
2022/07/22 00:21:58;;;;;;;;;;;;;;;24.08;47.60;99198.97;4925828;29;20413;-93
2022/07/22 00:24:24;;;;;;;;;;;;;;;23.89;48.02;99202.53;4925912;29;19915;-93
2022/07/22 00:26:49;;;;;;;;;;;;;;;23.89;47.34;99197.00;4926481;29;20290;-93
2022/07/22 00:29:14;;;;;;;;;;;;;;;23.85;47.07;99198.91;4935775;29;20013;-92
2022/07/22 00:31:40;;;;;;;;;;;;;;;23.92;47.23;99206.50;4940562;28;19961;-94
2022/07/22 00:34:05;;;;;;;;;;;;;;;24.04;47.39;99216.56;4941317;29;19918;-93
2022/07/22 00:36:30;;;;;;;;;;;;;;;24.10;47.14;99212.34;4940964;29;20344;-93
2022/07/22 00:38:56;;;;;;;;;;;;;;;24.13;47.07;99211.63;4941184;29;19918;-93
2022/07/22 00:41:21;;;;;;;;;;;;;;;24.03;47.12;99210.28;4924731;29;19937;-93
2022/07/22 00:43:50;;;;;;;;;;;;;;;23.94;47.61;99212.44;4941122;29;19914;-92
2022/07/22 00:46:15;;;;;;;;;;;;;;;23.85;48.49;99209.91;4941340;29;19915;-93
2022/07/22 00:48:40;;;;;;;;;;;;;;;23.80;49.11;99218.41;4940414;29;19925;-92
2022/07/22 00:51:06;;;;;;;;;;;;;;;23.65;49.70;99213.75;4940502;29;20304;-93
2022/07/22 00:53:31;;;;;;;;;;;;;;;23.52;49.35;99221.34;4940603;29;19915;-93
2022/07/22 00:55:56;;;;;;;;;;;;;;;23.45;49.69;99223.91;4940761;29;19921;-93
2022/07/22 00:58:22;;;;;;;;;;;;;;;23.33;49.90;99222.09;4954372;28;20364;-93
2022/07/22 01:00:47;;;;;;;;;;;;;;;23.18;50.91;99219.03;4978457;28;19921;-93
2022/07/22 01:03:13;;;;;;;;;;;;;;;23.15;50.83;99224.41;4963563;28;19925;-93
2022/07/22 01:05:38;;;;;;;;;;;;;;;23.07;51.08;99225.41;4963130;28;19913;-93
2022/07/22 01:08:07;;;;;;;;;;;;;;;22.98;50.90;99223.59;4962835;28;20012;-94
2022/07/22 01:10:32;;;;;;;;;;;;;;;23.10;50.35;99227.44;4962394;28;19941;-93
2022/07/22 01:12:58;;;;;;;;;;;;;;;23.01;50.77;99227.63;4964036;28;19918;-94
2022/07/22 01:15:23;;;;;;;;;;;;;;;23.12;50.72;99236.94;4962377;28;19949;-94
2022/07/22 01:17:48;;;;;;;;;;;;;;;23.23;50.14;99228.94;4963565;28;20008;-92
2022/07/22 01:20:14;;;;;;;;;;;;;;;23.31;49.85;99233.44;4963177;28;20004;-93
2022/07/22 01:22:39;;;;;;;;;;;;;;;23.37;49.90;99228.47;4963115;28;19922;-93
2022/07/22 01:25:05;;;;;;;;;;;;;;;23.39;49.05;99229.69;4962968;28;20347;-93
2022/07/22 01:27:30;;;;;;;;;;;;;;;23.42;49.03;99239.19;4962889;28;20279;-93
2022/07/22 01:29:55;;;;;;;;;;;;;;;23.45;48.96;99240.41;4943222;28;20352;-93
2022/07/22 01:32:21;;;;;;;;;;;;;;;23.42;49.42;99233.69;4944880;28;19914;-93
2022/07/22 01:34:46;;;;;;;;;;;;;;;23.40;49.55;99236.78;4944838;28;20297;-93
2022/07/22 01:37:11;;;;;;;;;;;;;;;23.37;49.14;99242.22;4944797;28;19914;-94
2022/07/22 01:39:37;;;;;;;;;;;;;;;23.18;49.85;99234.72;4942754;28;19914;-93
2022/07/22 01:42:02;;;;;;;;;;;;;;;23.23;50.14;99239.91;4944402;28;19921;-93
2022/07/22 01:44:27;;;;;;;;;;;;;;;23.22;50.18;99232.03;4943182;28;20326;-93
2022/07/22 01:46:53;;;;;;;;;;;;;;;23.27;49.81;99235.31;4943393;28;19969;-93
2022/07/22 01:49:19;;;;;;;;;;;;;;;23.31;49.56;99235.41;4957961;28;19901;-93
2022/07/22 01:51:44;;;;;;;;;;;;;;;23.33;49.48;99233.09;4962008;28;19914;-93
2022/07/22 01:54:10;;;;;;;;;;;;;;;23.32;49.48;99218.53;4963637;28;19917;-93
2022/07/22 01:56:35;;;;;;;;;;;;;;;23.32;49.42;99228.72;4963892;28;19918;-93
2022/07/22 01:59:00;;;;;;;;;;;;;;;23.19;50.65;99234.34;4962875;28;19918;-94
2022/07/22 02:01:26;;;;;;;;;;;;;;;23.03;51.53;99224.53;4962971;28;20040;-92
2022/07/22 02:03:51;;;;;;;;;;;;;;;22.91;51.59;99225.38;4962145;28;19953;-94
2022/07/22 02:06:16;;;;;;;;;;;;;;;22.96;51.19;99222.38;4962936;28;19914;-93
2022/07/22 02:08:41;;;;;;;;;;;;;;;23.05;50.75;99224.97;4962330;28;19976;-93
2022/07/22 02:11:07;;;;;;;;;;;;;;;22.96;51.60;99214.13;4962640;28;19957;-93
2022/07/22 02:13:32;;;;;;;;;;;;;;;22.85;52.46;99221.28;4954451;28;20368;-93
2022/07/22 02:15:57;;;;;;;;;;;;;;;22.75;53.25;99212.47;4942676;28;20379;-93
2022/07/22 02:18:23;;;;;;;;;;;;;;;22.68;53.29;99216.97;4942675;28;19922;-93
2022/07/22 02:20:48;;;;;;;;;;;;;;;22.46;53.35;99221.13;4943093;28;19921;-93
2022/07/22 02:23:14;;;;;;;;;;;;;;;22.37;53.93;99213.03;4942542;28;20013;-93
2022/07/22 02:25:39;;;;;;;;;;;;;;;22.22;54.89;99224.75;4942957;28;19918;-92
2022/07/22 02:28:04;;;;;;;;;;;;;;;22.12;54.86;99226.03;4942863;28;19999;-94
2022/07/22 02:30:30;;;;;;;;;;;;;;;21.98;55.20;99227.25;4943003;28;19919;-95
2022/07/22 02:32:56;;;;;;;;;;;;;;;21.80;55.79;99225.94;4943062;28;19976;-94
2022/07/22 02:35:21;;;;;;;;;;;;;;;21.73;56.18;99226.53;4944269;28;19946;-95
2022/07/22 02:37:46;;;;;;;;;;;;;;;21.65;56.26;99229.41;4945428;28;19918;-95
2022/07/22 02:40:12;;;;;;;;;;;;;;;21.55;56.42;99233.41;4943845;28;20344;-94
2022/07/22 02:42:37;;;;;;;;;;;;;;;21.61;56.72;99236.72;4943437;28;20384;-94
2022/07/22 02:45:03;;;;;;;;;;;;;;;21.53;56.73;99232.97;4959680;28;19969;-95
2022/07/22 02:47:28;;;;;;;;;;;;;;;21.56;56.50;99230.34;4944051;28;19914;-94
2022/07/22 02:49:54;;;;;;;;;;;;;;;21.52;57.17;99240.38;4958387;28;20336;-94
2022/07/22 02:52:19;;;;;;;;;;;;;;;21.56;56.48;99230.34;4958696;28;19918;-93
2022/07/22 02:54:44;;;;;;;;;;;;;;;21.44;57.34;99235.03;4942471;28;20256;-93
2022/07/22 02:57:10;;;;;;;;;;;;;;;21.45;56.90;99233.88;4945758;28;19914;-94
2022/07/22 02:59:35;;;;;;;;;;;;;;;21.39;57.46;99234.09;4946049;28;19921;-93
2022/07/22 03:02:01;;;;;;;;;;;;;;;21.40;57.03;99238.41;4945864;28;19914;-94
2022/07/22 03:04:26;;;;;;;;;;;;;;;21.31;57.37;99235.03;4947061;28;20311;-94
2022/07/22 03:06:52;;;;;;;;;;;;;;;21.24;57.51;99237.53;4945747;28;19914;-94
2022/07/22 03:09:17;;;;;;;;;;;;;;;21.17;57.55;99240.03;4946716;28;19915;-94
2022/07/22 03:11:42;;;;;;;;;;;;;;;21.09;57.96;99244.47;4946027;28;19918;-95
2022/07/22 03:14:08;;;;;;;;;;;;;;;21.08;58.31;99239.34;4945835;28;19936;-93
2022/07/22 03:16:33;;;;;;;;;;;;;;;20.99;58.30;99240.25;4945201;28;20360;-93
2022/07/22 03:18:58;;;;;;;;;;;;;;;21.02;58.25;99246.97;4961617;28;20287;-94
2022/07/22 03:21:24;;;;;;;;;;;;;;;21.07;57.71;99244.03;4961693;28;19977;-94
2022/07/22 03:23:53;;;;;;;;;;;;;;;21.02;58.79;99246.97;4945449;28;19914;-93
2022/07/22 03:26:19;;;;;;;;;;;;;;;21.03;58.55;99251.31;4945992;28;20355;-94
2022/07/22 03:28:44;;;;;;;;;;;;;;;21.02;58.63;99246.97;4939459;29;19930;-93
2022/07/22 03:31:10;;;;;;;;;;;;;;;20.99;58.81;99242.19;4947931;28;19914;-93
2022/07/22 03:33:35;;;;;;;;;;;;;;;20.96;58.93;99249.16;4960812;28;19921;-93
2022/07/22 03:36:00;;;;;;;;;;;;;;;20.78;59.89;99247.75;4942193;28;19919;-93
2022/07/22 03:41:34;;;;;;;;;;;;;;;20.48;60.88;99255.28;4977352;28;19914;-92
2022/07/22 03:43:59;;;;;;;;;;;;;;;20.51;60.64;99251.91;4941167;28;20355;-92
2022/07/22 03:46:25;;;;;;;;;;;;;;;20.42;61.01;99259.38;4945466;28;19914;-92
2022/07/22 03:48:50;;;;;;;;;;;;;;;20.40;61.38;99254.25;4943985;28;20302;-92
2022/07/22 03:51:15;;;;;;;;;;;;;;;20.37;61.36;99258.44;4944270;28;19969;-92
2022/07/22 03:53:41;;;;;;;;;;;;;;;20.35;61.72;99259.94;4944587;28;19914;-92
2022/07/22 03:56:06;;;;;;;;;;;;;;;20.42;61.30;99270.31;4944680;28;19972;-92
2022/07/22 03:58:32;;;;;;;;;;;;;;;20.44;61.20;99274.34;4937581;29;19922;-92
2022/07/22 04:00:57;;;;;;;;;;;;;;;20.48;61.19;99280.72;4950869;29;19914;-90
2022/07/22 04:03:22;;;;;;;;;;;;;;;20.52;60.78;99283.56;4940863;29;19921;-92
2022/07/22 04:05:47;;;;;;;;;;;;;;;20.67;59.51;99285.72;4953862;29;19915;-91
2022/07/22 04:08:13;;;;;;;;;;;;;;;20.73;59.00;99292.56;4940095;29;19961;-94
2022/07/22 04:10:38;;;;;;;;;;;;;;;20.82;58.66;99291.69;4951970;29;20385;-95
2022/07/22 04:13:03;;;;;;;;;;;;;;;21.01;57.92;99294.66;4923216;29;19914;-92
2022/07/22 04:15:29;;;;;;;;;;;;;;;21.10;57.30;99294.56;4941226;29;19914;-92
2022/07/22 04:17:54;;;;;;;;;;;;;;;21.34;56.12;99300.06;4954510;28;19914;-94
2022/07/22 04:20:19;;;;;;;;;;;;;;;21.41;55.87;99294.00;4957419;29;19953;-91
2022/07/22 04:22:47;;;;;;;;;;;;;;;21.58;55.12;99299.28;4941158;29;22471;-93
2022/07/22 04:25:12;;;;;;;;;;;;;;;21.70;54.76;99300.41;4936237;29;19918;-93
2022/07/22 04:27:37;;;;;;;;;;;;;;;21.73;54.76;99297.78;4942186;29;19915;-93
2022/07/22 04:30:03;;;;;;;;;;;;;;;21.84;54.30;99306.31;4940830;29;20303;-92
2022/07/22 04:32:28;;;;;;;;;;;;;;;21.99;53.67;99299.31;4925545;28;19918;-91
2022/07/22 04:34:54;;;;;;;;;;;;;;;22.10;53.81;99313.34;4936405;29;19915;-91
2022/07/22 04:37:19;;;;;;;;;;;;;;;22.19;53.38;99308.53;4937823;29;19915;-93
2022/07/22 04:39:44;;;;;;;;;;;;;;;22.12;54.51;99311.88;4921437;29;19918;-93
2022/07/22 04:42:10;;;;;;;;;;;;;;;22.02;54.62;99306.88;4923616;29;20334;-91
2022/07/22 04:44:35;;;;;;;;;;;;;;;22.05;55.33;99308.91;4937088;29;20308;-91
2022/07/22 04:47:03;;;;;;;;;;;;;;;21.99;54.43;99313.81;4922178;29;19947;-90
2022/07/22 04:49:28;;;;;;;;;;;;;;;22.10;54.76;99308.66;4961154;28;19918;-93
2022/07/22 04:51:53;;;;;;;;;;;;;;;22.21;54.73;99317.22;4939009;28;19921;-90
2022/07/22 04:54:19;;;;;;;;;;;;;;;22.21;54.41;99319.94;4936396;29;20381;-92
2022/07/22 04:56:44;;;;;;;;;;;;;;;22.30;54.38;99317.09;4944235;29;19914;-92
2022/07/22 04:59:16;;;;;;;;;;;;;;;22.36;54.86;99316.47;4939006;29;19915;-91
2022/07/22 05:01:42;;;;;;;;;;;;;;;22.47;54.65;99326.97;4956514;29;19914;-91
2022/07/22 05:04:07;;;;;;;;;;;;;;;22.46;54.63;99322.63;4938813;29;20058;-91
2022/07/22 05:06:36;;;;;;;;;;;;;;;22.48;53.61;99323.88;4940105;29;19937;-90
2022/07/22 05:09:01;;;;;;;;;;;;;;;22.56;53.64;99328.41;4939313;29;20301;-90
2022/07/22 05:11:26;;;;;;;;;;;;;;;22.64;52.36;99323.09;4941596;29;19921;-91
2022/07/22 05:13:52;;;;;;;;;;;;;;;22.68;53.71;99316.59;4956417;29;19918;-88
2022/07/22 05:16:17;;;;;;;;;;;;;;;22.77;52.92;99328.19;4957237;29;19982;-91
2022/07/22 05:18:45;;;;;;;;;;;;;;;22.78;53.03;99331.72;4938376;29;20364;-91
2022/07/22 05:21:10;;;;;;;;;;;;;;;22.79;53.41;99331.38;4939030;29;19914;-91
2022/07/22 05:23:36;;;;;;;;;;;;;;;22.94;52.80;99329.03;4939898;29;19945;-92
2022/07/22 05:26:01;;;;;;;;;;;;;;;22.97;53.80;99329.13;4939130;29;19915;-89
2022/07/22 05:28:29;;;;;;;;;;;;;;;23.04;52.83;99331.28;4942629;29;19937;-92
2022/07/22 05:30:54;;;;;;;;;;;;;;;23.16;52.24;99336.69;4929897;29;19996;-90
2022/07/22 05:33:19;;;;;;;;;;;;;;;23.24;52.78;99340.41;4942788;28;19918;-91
2022/07/22 05:35:45;;;;;;;;;;;;;;;23.33;51.18;99334.75;4954367;29;19938;-90
2022/07/22 05:38:10;;;;;;;;;;;;;;;23.43;50.29;99339.72;4943452;29;19984;-90
2022/07/22 05:40:35;;;;;;;;;;;;;;;23.49;51.17;99332.78;4928952;28;20535;-90
2022/07/22 05:43:01;;;;;;;;;;;;;;;23.57;49.91;99333.75;4958112;28;19918;-90
2022/07/22 05:45:26;;;;;;;;;;;;;;;23.73;48.98;99333.72;4962537;28;20383;-91
2022/07/22 05:47:51;;;;;;;;;;;;;;;23.80;49.04;99326.47;4951532;28;19921;-91
2022/07/22 05:50:19;;;;;;;;;;;;;;;23.87;49.27;99336.84;4962107;28;19921;-94
2022/07/22 05:52:48;;;;;;;;;;;;;;;24.04;48.85;99343.09;4943329;28;19918;-93
2022/07/22 05:55:13;;;;;;;;;;;;;;;24.17;48.89;99348.06;4941681;28;19917;-93
2022/07/22 05:57:38;;;;;;;;;;;;;;;24.20;49.16;99343.84;4951587;28;20300;-93
2022/07/22 06:00:04;;;;;;;;;;;;;;;24.29;48.62;99349.13;4925501;29;19915;-94
2022/07/22 06:02:29;;;;;;;;;;;;;;;24.38;47.44;99344.19;4935553;28;19914;-93
2022/07/22 06:04:55;;;;;;;;;;;;;;;24.47;47.98;99350.28;4934823;29;19915;-93
2022/07/22 06:07:22;;;;;;;;;;;;;;;24.51;47.09;99340.16;4925619;29;19922;-94
2022/07/22 06:09:48;;;;;;;;;;;;;;;24.72;46.82;99344.50;4927263;29;20013;-94
2022/07/22 06:12:13;;;;;;;;;;;;;;;24.79;46.57;99350.13;4924514;29;19961;-92
2022/07/22 06:14:38;;;;;;;;;;;;;;;24.92;47.10;99351.59;4940783;29;20384;-93
2022/07/22 06:17:04;;;;;;;;;;;;;;;25.10;46.94;99353.84;4926006;29;19914;-94
2022/07/22 06:19:29;;;;;;;;;;;;;;;25.11;47.55;99353.50;4945214;29;19937;-90
2022/07/22 06:21:55;;;;;;;;;;;;;;;25.20;46.90;99356.81;4922711;29;19918;-93
2022/07/22 06:24:20;;;;;;;;;;;;;;;25.31;46.51;99356.22;4926383;29;20376;-94
2022/07/22 06:26:46;;;;;;;;;;;;;;;25.37;47.20;99361.03;4927699;29;19924;-95
2022/07/22 06:29:14;;;;;;;;;;;;;;;25.50;46.34;99355.31;4928791;29;19923;-93
2022/07/22 06:31:40;;;;;;;;;;;;;;;25.58;46.33;99348.75;4929295;29;19926;-93
2022/07/22 06:34:05;;;;;;;;;;;;;;;25.68;44.93;99342.63;4929227;29;19915;-92
2022/07/22 06:36:31;;;;;;;;;;;;;;;25.80;45.05;99353.44;4930691;29;20516;-95
2022/07/22 06:38:57;;;;;;;;;;;;;;;25.86;45.27;99347.59;4928553;29;20009;-92
2022/07/22 06:41:22;;;;;;;;;;;;;;;26.07;44.16;99350.69;4927983;29;20353;-91
2022/07/22 06:43:48;;;;;;;;;;;;;;;26.00;43.64;99353.34;4935307;29;19922;-95
2022/07/22 06:46:16;;;;;;;;;;;;;;;26.21;44.19;99356.41;4927952;29;19985;-92
2022/07/22 06:48:42;;;;;;;;;;;;;;;26.29;43.61;99357.28;4935123;29;20392;-95
2022/07/22 06:51:08;;;;;;;;;;;;;;;26.45;42.45;99354.34;4946587;28;19915;-93
2022/07/22 06:53:33;;;;;;;;;;;;;;;26.54;43.81;99359.56;4946977;28;19914;-93
2022/07/22 06:55:59;;;;;;;;;;;;;;;26.64;43.42;99361.69;4947494;28;20452;-95
2022/07/22 07:01:29;;;;;;;;;;;;;;;26.88;42.95;99359.59;4966817;28;20069;-95
2022/07/22 07:03:54;;;;;;;;;;;;;;;27.03;42.79;99364.06;4961042;28;19914;-90
2022/07/22 07:06:28;;;;;;;;;;;;;;;27.05;42.65;99356.19;4946388;28;19921;-92
2022/07/22 07:08:54;;;;;;;;;;;;;;;27.15;41.94;99357.47;4948092;28;19918;-95
2022/07/22 07:11:19;;;;;;;;;;;;;;;27.30;41.43;99355.66;4948724;28;19921;-93
2022/07/22 07:13:47;;;;;;;;;;;;;;;27.41;40.77;99353.78;4943449;28;20027;-93
2022/07/22 07:16:13;;;;;;;;;;;;;;;27.42;41.03;99356.16;4926989;29;19925;-93
2022/07/22 07:18:38;;;;;;;;;;;;;;;27.50;41.68;99359.00;4943086;29;19921;-96
2022/07/22 07:21:07;;;;;;;;;;;;;;;27.58;40.93;99355.91;4941061;29;19915;-94
2022/07/22 07:23:33;;;;;;;;;;;;;;;27.78;40.45;99361.16;4960451;29;19915;-96
2022/07/22 07:26:01;;;;;;;;;;;;;;;27.90;40.08;99352.56;4926082;29;20353;-92
2022/07/22 07:28:30;;;;;;;;;;;;;;;27.99;40.62;99355.00;4934162;28;19926;-95
2022/07/22 07:30:57;;;;;;;;;;;;;;;28.07;40.59;99353.06;4946440;28;19918;-93
2022/07/22 07:33:23;;;;;;;;;;;;;;;28.17;40.42;99355.88;4948240;28;19914;-92
2022/07/22 07:35:48;;;;;;;;;;;;;;;28.21;40.75;99353.94;4947458;28;19914;-93
2022/07/22 07:38:14;;;;;;;;;;;;;;;28.38;38.48;99360.72;4958379;28;19913;-95
2022/07/22 07:41:11;;;;;;;;;;;;;;;28.53;38.37;99360.81;4972419;28;19913;-96
2022/07/22 07:43:36;;;;;;;;;;;;;;;28.67;38.35;99363.63;4973002;28;19957;-92
2022/07/22 07:46:02;;;;;;;;;;;;;;;28.77;38.15;99362.09;4960871;28;19914;-91
2022/07/22 07:48:27;;;;;;;;;;;;;;;28.86;36.82;99365.28;4956780;29;19915;-90
2022/07/22 07:50:56;;;;;;;;;;;;;;;28.88;37.40;99368.44;4926834;29;19925;-92
2022/07/22 07:53:21;;;;;;;;;;;;;;;28.98;37.07;99367.66;4941893;28;19921;-92
2022/07/22 07:55:50;;;;;;;;;;;;;;;28.86;36.82;99342.31;4940192;29;19918;-92
2022/07/22 07:58:21;;;;;;;;;;;;;;;29.10;36.58;99365.72;4951921;28;19918;-96
2022/07/22 08:00:49;;;;;;;;;;;;;;;29.14;36.73;99370.13;4939687;28;19932;-92
2022/07/22 08:03:15;;;;;;;;;;;;;;;29.19;37.02;99371.69;4949001;28;19921;-92
2022/07/22 08:05:40;;;;;;;;;;;;;;;29.36;36.78;99370.13;4945452;28;19914;-91
2022/07/22 08:08:06;;;;;;;;;;;;;;;29.45;36.63;99372.50;4946685;28;19918;-93
2022/07/22 08:10:31;;;;;;;;;;;;;;;29.50;35.96;99372.91;4943397;28;19914;-92
2022/07/22 08:12:57;;;;;;;;;;;;;;;29.60;35.58;99369.31;4945244;28;20307;-91
2022/07/22 08:15:27;;;;;;;;;;;;;;;29.65;35.31;99370.91;4944441;28;19915;-93
2022/07/22 08:17:53;;;;;;;;;;;;;;;29.67;35.66;99376.06;4941965;28;19918;-93
2022/07/22 08:20:18;;;;;;;;;;;;;;;29.76;34.90;99365.38;4957689;28;19914;-93
2022/07/22 08:22:47;;;;;;;;;;;;;;;29.75;34.54;99374.91;4942149;29;19914;-92
2022/07/22 08:25:32;;;;;;;;;;;;;;;29.81;34.26;99364.97;4974262;28;19926;-95
2022/07/22 08:28:10;;;;;;;;;;;;;;;;;;;;;
2022/07/22 08:30:45;;;;;;;;;;;;;;;29.97;34.26;99357.00;4912389;29;19927;-91
2022/07/22 08:33:10;;;;;;;;;;;;;;;30.07;35.51;99374.03;4885099;29;19991;-94
2022/07/22 08:35:39;;;;;;;;;;;;;;;30.12;35.06;99368.09;4905671;29;19919;-93
2022/07/22 08:38:05;;;;;;;;;;;;;;;30.17;34.68;99370.44;4892726;29;19953;-92
2022/07/22 08:40:31;;;;;;;;;;;;;;;30.23;34.69;99371.59;4885818;29;19915;-93
2022/07/22 08:42:56;;;;;;;;;;;;;;;30.27;34.13;99371.59;4897780;29;19978;-92
2022/07/22 08:45:22;;;;;;;;;;;;;;;30.17;33.69;99368.47;4883275;29;19915;-92
2022/07/22 08:47:48;;;;;;;;;;;;;;;30.34;33.44;99382.72;4871105;29;19916;-94
2022/07/22 08:50:13;;;;;;;;;;;;;;;30.33;34.13;99381.13;4869550;29;19931;-94
2022/07/22 08:52:50;;;;;;;;;;;;;;;;;;;;;
2022/07/22 08:55:27;;;;;;;;;;;;;;;30.54;33.49;99383.81;4893545;29;20006;-95
2022/07/22 08:57:58;;;;;;;;;;;;;;;30.64;32.21;99395.31;4890579;29;19922;-95
2022/07/22 09:00:26;;;;;;;;;;;;;;;30.35;32.56;99387.88;4877642;29;19920;-96
2022/07/22 09:03:07;;;;;;;;;;;;;;;;;;;;;
2022/07/22 09:05:33;;;;;;;;;;;;;;;30.48;32.21;99387.44;4960683;29;20098;-94
2022/07/22 09:07:58;;;;;;;;;;;;;;;30.54;31.84;99388.59;4932779;28;19983;-91
2022/07/22 09:10:30;;;;;;;;;;;;;;;30.55;31.45;99385.41;4979767;28;19922;-94
2022/07/22 09:13:13;;;;;;;;;;;;;;;30.70;30.97;99385.34;4966425;28;19914;-96
2022/07/22 09:16:05;;;;;;;;;;;;;;;30.66;31.10;99387.34;4964123;28;19914;-95
2022/07/22 09:18:43;;;;;;;;;;;;;;;30.83;30.96;99384.47;4942538;29;19915;-93
2022/07/22 09:21:09;;;;;;;;;;;;;;;30.97;31.47;99393.97;4941502;28;19925;-96
2022/07/22 09:23:38;;;;;;;;;;;;;;;30.94;30.95;99397.53;4960902;28;19914;-93
2022/07/22 09:26:04;;;;;;;;;;;;;;;31.05;29.91;99397.50;4944265;28;20388;-93
2022/07/22 09:28:29;;;;;;;;;;;;;;;31.06;30.10;99391.50;4942921;28;19929;-95
2022/07/22 09:30:55;;;;;;;;;;;;;;;31.04;29.09;99396.69;4950495;28;19918;-93
2022/07/22 09:33:20;;;;;;;;;;;;;;;30.94;30.31;99380.88;4942912;28;19921;-91
2022/07/22 09:35:46;;;;;;;;;;;;;;;31.05;30.07;99392.72;4958213;28;20356;-93
2022/07/22 09:38:11;;;;;;;;;;;;;;;31.12;29.30;99389.88;4943512;28;19915;-95
2022/07/22 09:40:37;;;;;;;;;;;;;;;31.13;29.45;99391.47;4960602;28;20001;-94
2022/07/22 09:43:04;;;;;;;;;;;;;;;31.15;28.80;99391.06;4944992;28;19953;-94
2022/07/22 09:45:30;;;;;;;;;;;;;;;31.14;28.70;99384.72;4940884;29;19963;-96
2022/07/22 09:47:56;;;;;;;;;;;;;;;31.19;28.98;99389.84;4939637;29;20400;-95
2022/07/22 09:50:25;;;;;;;;;;;;;;;31.14;28.73;99389.50;4942373;29;19914;-91
2022/07/22 09:52:51;;;;;;;;;;;;;;;31.24;27.49;99385.06;4955815;28;19918;-93
2022/07/22 09:55:17;;;;;;;;;;;;;;;31.31;27.44;99388.56;4961371;28;19925;-92
2022/07/22 09:57:43;;;;;;;;;;;;;;;31.42;27.82;99392.06;4955075;29;20348;-92
2022/07/22 10:02:58;;;;;;;;;;;;;;;31.48;26.00;99386.88;4946422;28;20373;-94
2022/07/22 10:05:24;;;;;;;;;;;;;;;31.49;25.50;99384.88;4939938;29;19949;-91
2022/07/22 10:07:50;;;;;;;;;;;;;;;31.49;26.09;99384.88;4958457;28;19925;-93
2022/07/22 10:10:19;;;;;;;;;;;;;;;31.47;25.47;99381.72;4962345;28;20009;-96
2022/07/22 10:12:49;;;;;;;;;;;;;;;31.48;25.65;99378.53;5000271;28;19918;-94
2022/07/22 10:15:15;;;;;;;;;;;;;;;31.55;25.36;99381.25;4950394;28;19922;-91
2022/07/22 10:18:09;;;;;;;;;;;;;;;;;;;;;
2022/07/22 10:20:37;;;;;;;;;;;;;;;31.63;24.35;99379.19;4959691;29;20300;-93
2022/07/22 10:23:05;;;;;;;;;;;;;;;31.64;24.47;99394.69;4944136;28;19918;-93
2022/07/22 10:25:32;;;;;;;;;;;;;;;31.68;24.41;99377.97;4961518;28;19914;-94
2022/07/22 10:28:02;;;;;;;;;;;;;;;31.74;24.54;99379.09;4943293;28;19918;-91
2022/07/22 10:30:28;;;;;;;;;;;;;;;31.91;24.39;99382.91;4946719;29;20008;-94
2022/07/22 10:33:11;;;;;;;;;;;;;;;31.89;24.86;99382.53;4976140;28;19960;-95
2022/07/22 10:35:59;;;;;;;;;;;;;;;31.91;25.10;99375.34;4964100;28;19949;-94
2022/07/22 10:38:28;;;;;;;;;;;;;;;32.07;24.00;99379.59;4958380;29;19915;-95
2022/07/22 10:40:55;;;;;;;;;;;;;;;32.17;24.14;99382.25;4943133;29;19915;-93
2022/07/22 10:43:24;;;;;;;;;;;;;;;32.10;24.60;99375.97;4941099;29;19928;-93
2022/07/22 10:46:07;;;;;;;;;;;;;;;32.26;24.17;99384.53;4943274;29;19914;-95
2022/07/22 10:48:35;;;;;;;;;;;;;;;32.30;24.34;99376.94;4928165;29;19914;-94
2022/07/22 10:51:07;;;;;;;;;;;;;;;32.27;23.79;99374.19;4943257;29;19914;-93
2022/07/22 10:53:59;;;;;;;;;;;;;;;32.40;24.20;99375.22;4942114;29;19921;-92
2022/07/22 10:56:31;;;;;;;;;;;;;;;32.46;24.21;99372.75;4936109;29;19949;-94
2022/07/22 10:59:02;;;;;;;;;;;;;;;32.43;24.27;99379.97;4942321;29;19914;-93
2022/07/22 11:01:28;;;;;;;;;;;;;;;32.44;23.89;99375.97;4960005;29;19969;-93
2022/07/22 11:04:15;;;;;;;;;;;;;;;32.51;24.01;99373.09;4941331;29;19966;-93
2022/07/22 11:06:41;;;;;;;;;;;;;;;32.55;24.63;99364.72;4939926;29;19966;-94
2022/07/22 11:09:13;;;;;;;;;;;;;;;32.61;24.58;99366.63;4915130;29;19922;-94
2022/07/22 11:11:41;;;;;;;;;;;;;;;32.71;24.55;99364.91;4928187;29;19962;-94
2022/07/22 11:14:17;;;;;;;;;;;;;;;32.66;22.22;99378.50;4961140;28;19918;-92
2022/07/22 11:16:43;;;;;;;;;;;;;;;32.60;21.32;99364.25;4961658;28;19918;-92
2022/07/22 11:19:08;;;;;;;;;;;;;;;32.65;22.39;99371.38;4960717;28;19937;-92
2022/07/22 11:21:36;;;;;;;;;;;;;;;32.73;21.63;99364.50;4962152;28;19978;-92
2022/07/22 11:24:14;;;;;;;;;;;;;;;32.75;21.79;99360.06;4979233;28;19921;-94
2022/07/22 11:26:46;;;;;;;;;;;;;;;32.63;21.24;99355.06;4961436;28;19946;-94
2022/07/22 11:29:30;;;;;;;;;;;;;;;32.70;21.07;99354.94;4960924;28;20013;-95
2022/07/22 11:31:56;;;;;;;;;;;;;;;32.65;20.42;99352.63;4959866;28;19914;-94
2022/07/22 11:34:25;;;;;;;;;;;;;;;32.75;20.06;99346.13;4960879;28;19921;-94
2022/07/22 11:36:50;;;;;;;;;;;;;;;32.74;19.99;99344.53;4962242;28;19949;-92
2022/07/22 11:39:25;;;;;;;;;;;;;;;32.87;20.04;99349.53;4975736;28;19933;-94
2022/07/22 11:41:51;;;;;;;;;;;;;;;32.91;19.50;99353.84;4975872;28;19914;-93
2022/07/22 11:44:23;;;;;;;;;;;;;;;32.99;19.51;99357.31;4960198;28;19933;-93
2022/07/22 11:46:51;;;;;;;;;;;;;;;33.03;19.81;99350.47;4955463;28;19914;-92
2022/07/22 11:49:20;;;;;;;;;;;;;;;33.08;19.58;99349.25;4959514;28;19976;-94
2022/07/22 11:51:46;;;;;;;;;;;;;;;33.12;19.34;99349.19;4963555;28;20316;-91
2022/07/22 11:54:21;;;;;;;;;;;;;;;33.09;19.19;99336.09;4961253;28;19915;-92
2022/07/22 11:56:46;;;;;;;;;;;;;;;33.08;18.94;99338.09;4958946;28;20097;-91
2022/07/22 11:59:12;;;;;;;;;;;;;;;33.06;18.81;99348.84;4975992;28;19921;-91
2022/07/22 12:01:38;;;;;;;;;;;;;;;33.07;18.97;99342.06;4958279;28;19965;-91
2022/07/22 12:04:10;;;;;;;;;;;;;;;33.16;18.50;99355.50;4957854;28;19915;-91
2022/07/22 12:06:37;;;;;;;;;;;;;;;33.15;18.82;99360.28;4939498;29;20300;-92
2022/07/22 12:09:09;;;;;;;;;;;;;;;33.29;18.44;99345.31;4970978;28;19953;-92
2022/07/22 12:11:36;;;;;;;;;;;;;;;33.38;18.60;99344.78;4956806;28;19918;-94
2022/07/22 12:14:09;;;;;;;;;;;;;;;33.27;17.61;99339.38;4956360;28;19922;-93
2022/07/22 12:16:34;;;;;;;;;;;;;;;33.45;18.13;99327.13;4957396;29;19918;-94
2022/07/22 12:19:24;;;;;;;;;;;;;;;33.53;18.13;99336.94;4955623;29;20431;-95
2022/07/22 12:21:55;;;;;;;;;;;;;;;33.63;17.52;99333.19;4968586;28;19914;-94
2022/07/22 12:24:31;;;;;;;;;;;;;;;33.64;17.71;99332.00;4959441;28;20440;-92
2022/07/22 12:26:57;;;;;;;;;;;;;;;33.81;17.50;99333.66;4946709;29;19918;-91
2022/07/22 12:29:26;;;;;;;;;;;;;;;33.89;17.57;99325.94;4869311;29;1966623;-93
2022/07/22 12:31:59;;;;;;;;;;;;;;;33.92;17.51;99332.66;4937631;29;20310;-92
2022/07/22 12:34:36;;;;;;;;;;;;;;;33.82;17.33;99326.84;4939565;29;19919;-96
2022/07/22 12:37:15;;;;;;;;;;;;;;;33.97;17.12;99323.78;4923689;29;20345;-96
2022/07/22 12:39:58;;;;;;;;;;;;;;;34.05;16.89;99314.03;4923294;29;19919;-95
2022/07/22 12:42:24;;;;;;;;;;;;;;;33.97;16.86;99327.38;4921224;29;19937;-95
2022/07/22 12:44:52;;;;;;;;;;;;;;;34.05;17.02;99322.41;4938227;29;19914;-93
2022/07/22 12:47:18;;;;;;;;;;;;;;;34.21;17.26;99316.94;4939440;29;19927;-95
2022/07/22 12:49:46;;;;;;;;;;;;;;;34.26;16.70;99318.41;4941271;29;19919;-95
2022/07/22 12:52:12;;;;;;;;;;;;;;;34.21;16.93;99310.56;4937482;29;20302;-95
2022/07/22 12:54:38;;;;;;;;;;;;;;;34.37;17.12;99312.63;4920885;29;19926;-94
2022/07/22 12:57:07;;;;;;;;;;;;;;;34.47;17.54;99313.59;4921082;29;19970;-91
2022/07/22 12:59:32;;;;;;;;;;;;;;;34.49;16.46;99313.94;4937002;29;19915;-93